Dades meteomassalio
Diari Summary for Febrer 23, 2018 Units:  Both    English   Metric
« Previous Day
Next Day »
Diari Semanal Mensual Anual Personalitzat
  Maxima: Minima: Mijana:
Temperatura: TemperatureC °F /  -17.8 °C -2.8 °F /  -19.3 °C 3.2 °F /  -16 °C
Rosada: DewpointC °F /  -17.8 °C -6.1 °F /  -21.2 °C -3.9 °F /  -19.9 °C
Humitat: Humidity % 39 % 61 %
Velocitat del vent: WindSpeedKMH mph /  0 km/h - 15.8 mph /  25.4 km/h
Racha vent: WindSpeedGustKMH mph /  0 km/h - -
Vent:- - WNW
Pressio: PressurehPa in /  0 hPa 1009.0 in /  34164.7 hPa -
Pluja: 0.0 in /  0 mm    
Historical Graphs
 
 
Tabular Data for Febrer 23, 2018
Time Temperature Dew Point Pressure Wind Wind Speed Wind Gust Humidity Rainfall Rate (Hourly) solar Conditions
TemperatureC °F /  -17.8 °C DewpointC °F /  -17.8 °C PressurehPa in /  0 hPa Calm     Humidity % HourlyPrecipMM in /  0 mm SolarRadiationWatts/m^2 W/m2 Conditions
00:04 2.2 °F /  -16.6 °C -5.7 °F /  -20.9 °C 1010.7 in /  34222.3 hPa NW 25.9 mph /  41.7 km/h 25.9 mph /  41.7 km/h 56 % 0.0 in /  0 mm 0.0 W/m2 CLR
00:09 2.2 °F /  -16.6 °C -5.4 °F /  -20.8 °C 1010.7 in /  34222.3 hPa NW 31.5 mph /  50.7 km/h 31.5 mph /  50.7 km/h 57 % 0.0 in /  0 mm 0.0 W/m2 CLR
00:14 2.2 °F /  -16.6 °C -5.4 °F /  -20.8 °C 1010.7 in /  34222.3 hPa WNW 33.3 mph /  53.6 km/h 33.3 mph /  53.6 km/h 57 % 0.0 in /  0 mm 0.0 W/m2 CLR
00:19 2.2 °F /  -16.6 °C -5.2 °F /  -20.7 °C 1010.7 in /  34222.3 hPa NW 29.6 mph /  47.6 km/h 29.6 mph /  47.6 km/h 58 % 0.0 in /  0 mm 0.0 W/m2 CLR
00:24 2.2 °F /  -16.6 °C -5.2 °F /  -20.7 °C 1010.7 in /  34222.3 hPa NW 33.8 mph /  54.4 km/h 33.8 mph /  54.4 km/h 58 % 0.0 in /  0 mm 0.0 W/m2 CLR
00:29 2.2 °F /  -16.6 °C -5.0 °F /  -20.6 °C 1010.7 in /  34222.3 hPa WNW 27.8 mph /  44.7 km/h 27.8 mph /  44.7 km/h 59 % 0.0 in /  0 mm 0.0 W/m2 CLR
00:34 2.2 °F /  -16.6 °C -5.0 °F /  -20.6 °C 1010.7 in /  34222.3 hPa WNW 24.1 mph /  38.8 km/h 24.1 mph /  38.8 km/h 59 % 0.0 in /  0 mm 0.0 W/m2 CLR
00:39 2.2 °F /  -16.6 °C -4.8 °F /  -20.4 °C 1010.7 in /  34222.3 hPa West 22.5 mph /  36.2 km/h 22.5 mph /  36.2 km/h 60 % 0.0 in /  0 mm 0.0 W/m2 CLR
00:44 1.7 °F /  -16.8 °C -5.3 °F /  -20.7 °C 1010.7 in /  34222.3 hPa WNW 29.6 mph /  47.6 km/h 29.6 mph /  47.6 km/h 60 % 0.0 in /  0 mm 0.0 W/m2 CLR
00:49 1.7 °F /  -16.8 °C -5.3 °F /  -20.7 °C 1010.7 in /  34222.3 hPa WNW 25.9 mph /  41.7 km/h 25.9 mph /  41.7 km/h 60 % 0.0 in /  0 mm 0.0 W/m2 CLR
00:54 2.2 °F /  -16.6 °C -4.6 °F /  -20.3 °C 1010.7 in /  34222.3 hPa WNW 25.9 mph /  41.7 km/h 25.9 mph /  41.7 km/h 61 % 0.0 in /  0 mm 0.0 W/m2 CLR
00:59 1.7 °F /  -16.8 °C -5.1 °F /  -20.6 °C 1010.7 in /  34222.3 hPa WNW 37.0 mph /  59.5 km/h 37.0 mph /  59.5 km/h 61 % 0.0 in /  0 mm 0.0 W/m2 CLR
01:04 1.7 °F /  -16.8 °C -5.1 °F /  -20.6 °C 1010.7 in /  34222.3 hPa WNW 31.5 mph /  50.7 km/h 31.5 mph /  50.7 km/h 61 % 0.0 in /  0 mm 0.0 W/m2 CLR
01:09 2.2 °F /  -16.6 °C -4.6 °F /  -20.3 °C 1010.4 in /  34212.1 hPa West 29.6 mph /  47.6 km/h 29.6 mph /  47.6 km/h 61 % 0.0 in /  0 mm 0.0 W/m2 CLR
01:14 2.2 °F /  -16.6 °C -4.6 °F /  -20.3 °C 1010.7 in /  34222.3 hPa NW 29.6 mph /  47.6 km/h 29.6 mph /  47.6 km/h 61 % 0.0 in /  0 mm 0.0 W/m2 CLR
01:19 1.7 °F /  -16.8 °C -4.8 °F /  -20.4 °C 1010.7 in /  34222.3 hPa NW 25.9 mph /  41.7 km/h 25.9 mph /  41.7 km/h 62 % 0.0 in /  0 mm 0.0 W/m2 CLR
01:24 2.2 °F /  -16.6 °C -4.3 °F /  -20.2 °C 1010.7 in /  34222.3 hPa WNW 30.6 mph /  49.2 km/h 30.6 mph /  49.2 km/h 62 % 0.0 in /  0 mm 0.0 W/m2 CLR
01:29 2.2 °F /  -16.6 °C -4.3 °F /  -20.2 °C 1010.7 in /  34222.3 hPa WNW 33.3 mph /  53.6 km/h 33.3 mph /  53.6 km/h 62 % 0.0 in /  0 mm 0.0 W/m2 CLR
01:34 2.2 °F /  -16.6 °C -4.3 °F /  -20.2 °C 1010.7 in /  34222.3 hPa NW 24.1 mph /  38.8 km/h 24.1 mph /  38.8 km/h 62 % 0.0 in /  0 mm 0.0 W/m2 CLR
01:39 2.2 °F /  -16.6 °C -4.3 °F /  -20.2 °C 1010.7 in /  34222.3 hPa WNW 25.7 mph /  41.4 km/h 25.7 mph /  41.4 km/h 62 % 0.0 in /  0 mm 0.0 W/m2 CLR
01:44 1.7 °F /  -16.8 °C -4.8 °F /  -20.4 °C 1010.7 in /  34222.3 hPa WNW 25.9 mph /  41.7 km/h 25.9 mph /  41.7 km/h 62 % 0.0 in /  0 mm 0.0 W/m2 CLR
01:49 1.7 °F /  -16.8 °C -4.6 °F /  -20.3 °C 1010.4 in /  34212.1 hPa WNW 18.5 mph /  29.8 km/h 18.8 mph /  30.3 km/h 63 % 0.0 in /  0 mm 0.0 W/m2 CLR
01:54 1.7 °F /  -16.8 °C -4.6 °F /  -20.3 °C 1010.4 in /  34212.1 hPa WNW 24.1 mph /  38.8 km/h 24.1 mph /  38.8 km/h 63 % 0.0 in /  0 mm 0.0 W/m2 CLR
01:59 1.7 °F /  -16.8 °C -4.6 °F /  -20.3 °C 1010.7 in /  34222.3 hPa WNW 16.7 mph /  26.9 km/h 16.7 mph /  26.9 km/h 63 % 0.0 in /  0 mm 0.0 W/m2 CLR
02:04 1.7 °F /  -16.8 °C -4.6 °F /  -20.3 °C 1010.7 in /  34222.3 hPa West 18.5 mph /  29.8 km/h 18.5 mph /  29.8 km/h 63 % 0.0 in /  0 mm 0.0 W/m2 CLR
02:10 1.7 °F /  -16.8 °C -4.4 °F /  -20.2 °C 1010.7 in /  34222.3 hPa NW 22.2 mph /  35.7 km/h 22.2 mph /  35.7 km/h 64 % 0.0 in /  0 mm 0.0 W/m2 CLR
02:15 1.7 °F /  -16.8 °C -4.4 °F /  -20.2 °C 1010.7 in /  34222.3 hPa WNW 11.3 mph /  18.2 km/h 11.3 mph /  18.2 km/h 64 % 0.0 in /  0 mm 0.0 W/m2 CLR
02:20 1.7 °F /  -16.8 °C -4.4 °F /  -20.2 °C 1010.7 in /  34222.3 hPa West 18.5 mph /  29.8 km/h 18.5 mph /  29.8 km/h 64 % 0.0 in /  0 mm 0.0 W/m2 CLR
02:25 1.7 °F /  -16.8 °C -4.2 °F /  -20.1 °C 1010.7 in /  34222.3 hPa West 18.5 mph /  29.8 km/h 18.5 mph /  29.8 km/h 65 % 0.0 in /  0 mm 0.0 W/m2 CLR
02:30 1.7 °F /  -16.8 °C -4.2 °F /  -20.1 °C 1010.7 in /  34222.3 hPa West 18.5 mph /  29.8 km/h 18.5 mph /  29.8 km/h 65 % 0.0 in /  0 mm 0.0 W/m2 CLR
02:35 1.7 °F /  -16.8 °C -4.2 °F /  -20.1 °C 1010.7 in /  34222.3 hPa WNW 16.1 mph /  25.9 km/h 16.1 mph /  25.9 km/h 65 % 0.0 in /  0 mm 0.0 W/m2 CLR
02:40 1.7 °F /  -16.8 °C -4.2 °F /  -20.1 °C 1010.7 in /  34222.3 hPa West 18.5 mph /  29.8 km/h 18.5 mph /  29.8 km/h 65 % 0.0 in /  0 mm 0.0 W/m2 CLR
02:45 1.7 °F /  -16.8 °C -4.0 °F /  -20 °C 1010.7 in /  34222.3 hPa West 24.1 mph /  38.8 km/h 24.1 mph /  38.8 km/h 66 % 0.0 in /  0 mm 0.0 W/m2 CLR
02:50 1.7 °F /  -16.8 °C -4.0 °F /  -20 °C 1010.7 in /  34222.3 hPa West 18.5 mph /  29.8 km/h 18.5 mph /  29.8 km/h 66 % 0.0 in /  0 mm 0.0 W/m2 CLR
02:55 1.7 °F /  -16.8 °C -3.8 °F /  -19.9 °C 1010.7 in /  34222.3 hPa West 18.5 mph /  29.8 km/h 18.5 mph /  29.8 km/h 67 % 0.0 in /  0 mm 0.0 W/m2 CLR
03:00 1.7 °F /  -16.8 °C -3.8 °F /  -19.9 °C 1010.7 in /  34222.3 hPa WNW 19.3 mph /  31.1 km/h 19.3 mph /  31.1 km/h 67 % 0.0 in /  0 mm 0.0 W/m2 CLR
03:05 1.7 °F /  -16.8 °C -3.8 °F /  -19.9 °C 1010.7 in /  34222.3 hPa WNW 22.2 mph /  35.7 km/h 22.2 mph /  35.7 km/h 67 % 0.0 in /  0 mm 0.0 W/m2 CLR
03:10 1.7 °F /  -16.8 °C -3.8 °F /  -19.9 °C 1010.7 in /  34222.3 hPa West 16.7 mph /  26.9 km/h 16.7 mph /  26.9 km/h 67 % 0.0 in /  0 mm 0.0 W/m2 CLR
03:15 1.1 °F /  -17.2 °C -4.2 °F /  -20.1 °C 1010.4 in /  34212.1 hPa West 14.8 mph /  23.8 km/h 14.8 mph /  23.8 km/h 68 % 0.0 in /  0 mm 0.0 W/m2 CLR
03:20 1.1 °F /  -17.2 °C -4.2 °F /  -20.1 °C 1010.7 in /  34222.3 hPa West 11.3 mph /  18.2 km/h 11.3 mph /  18.2 km/h 68 % 0.0 in /  0 mm 0.0 W/m2 CLR
03:25 1.1 °F /  -17.2 °C -4.2 °F /  -20.1 °C 1010.4 in /  34212.1 hPa WNW 14.8 mph /  23.8 km/h 14.8 mph /  23.8 km/h 68 % 0.0 in /  0 mm 0.0 W/m2 CLR
03:30 1.1 °F /  -17.2 °C -3.9 °F /  -19.9 °C 1010.4 in /  34212.1 hPa WNW 16.7 mph /  26.9 km/h 16.7 mph /  26.9 km/h 69 % 0.0 in /  0 mm 0.0 W/m2 CLR
03:35 0.6 °F /  -17.4 °C -4.5 °F /  -20.3 °C 1010.4 in /  34212.1 hPa West 19.3 mph /  31.1 km/h 19.3 mph /  31.1 km/h 69 % 0.0 in /  0 mm 0.0 W/m2 CLR
03:40 0.6 °F /  -17.4 °C -4.5 °F /  -20.3 °C 1010.4 in /  34212.1 hPa West 22.2 mph /  35.7 km/h 22.2 mph /  35.7 km/h 69 % 0.0 in /  0 mm 0.0 W/m2 CLR
03:45 0.6 °F /  -17.4 °C -4.5 °F /  -20.3 °C 1010.4 in /  34212.1 hPa WNW 16.7 mph /  26.9 km/h 16.7 mph /  26.9 km/h 69 % 0.0 in /  0 mm 0.0 W/m2 CLR
03:50 0.6 °F /  -17.4 °C -4.3 °F /  -20.2 °C 1010.4 in /  34212.1 hPa WNW 18.5 mph /  29.8 km/h 18.5 mph /  29.8 km/h 70 % 0.0 in /  0 mm 0.0 W/m2 CLR
03:55 0.6 °F /  -17.4 °C -4.3 °F /  -20.2 °C 1010.4 in /  34212.1 hPa WNW 22.2 mph /  35.7 km/h 22.2 mph /  35.7 km/h 70 % 0.0 in /  0 mm 0.0 W/m2 CLR
04:00 0.6 °F /  -17.4 °C -4.3 °F /  -20.2 °C 1010.0 in /  34198.6 hPa West 20.4 mph /  32.8 km/h 20.4 mph /  32.8 km/h 70 % 0.0 in /  0 mm 0.0 W/m2 CLR
04:05 0.6 °F /  -17.4 °C -4.3 °F /  -20.2 °C 1010.0 in /  34198.6 hPa WSW 20.4 mph /  32.8 km/h 20.4 mph /  32.8 km/h 70 % 0.0 in /  0 mm 0.0 W/m2 CLR
04:10 0.6 °F /  -17.4 °C -4.3 °F /  -20.2 °C 1010.0 in /  34198.6 hPa WNW 18.5 mph /  29.8 km/h 18.5 mph /  29.8 km/h 70 % 0.0 in /  0 mm 0.0 W/m2 CLR
04:15 0.6 °F /  -17.4 °C -4.5 °F /  -20.3 °C 1010.0 in /  34198.6 hPa West 9.3 mph /  15 km/h 9.3 mph /  15 km/h 69 % 0.0 in /  0 mm 0.0 W/m2 CLR
04:20 0.6 °F /  -17.4 °C -4.5 °F /  -20.3 °C 1010.4 in /  34212.1 hPa West 14.8 mph /  23.8 km/h 14.8 mph /  23.8 km/h 69 % 0.0 in /  0 mm 0.0 W/m2 CLR
04:25 0.6 °F /  -17.4 °C -4.3 °F /  -20.2 °C 1010.0 in /  34198.6 hPa West 13.0 mph /  20.9 km/h 13.0 mph /  20.9 km/h 70 % 0.0 in /  0 mm 0.0 W/m2 CLR
04:30 0.6 °F /  -17.4 °C -4.3 °F /  -20.2 °C 1010.0 in /  34198.6 hPa West 11.1 mph /  17.9 km/h 11.1 mph /  17.9 km/h 70 % 0.0 in /  0 mm 0.0 W/m2 CLR
04:35 0.0 °F /  -17.8 °C -4.8 °F /  -20.4 °C 1010.0 in /  34198.6 hPa West 14.8 mph /  23.8 km/h 14.8 mph /  23.8 km/h 70 % 0.0 in /  0 mm 0.0 W/m2 CLR
04:40 0.0 °F /  -17.8 °C -4.8 °F /  -20.4 °C 1010.0 in /  34198.6 hPa West 16.1 mph /  25.9 km/h 16.1 mph /  25.9 km/h 70 % 0.0 in /  0 mm 0.0 W/m2 CLR
04:45 0.0 °F /  -17.8 °C -4.8 °F /  -20.4 °C 1010.0 in /  34198.6 hPa West 18.5 mph /  29.8 km/h 18.5 mph /  29.8 km/h 70 % 0.0 in /  0 mm 0.0 W/m2 CLR
04:50 0.0 °F /  -17.8 °C -4.6 °F /  -20.3 °C 1010.0 in /  34198.6 hPa West 18.5 mph /  29.8 km/h 18.5 mph /  29.8 km/h 71 % 0.0 in /  0 mm 0.0 W/m2 CLR
04:55 0.0 °F /  -17.8 °C -4.6 °F /  -20.3 °C 1010.4 in /  34212.1 hPa WNW 14.8 mph /  23.8 km/h 14.8 mph /  23.8 km/h 71 % 0.0 in /  0 mm 0.0 W/m2 CLR
05:00 0.0 °F /  -17.8 °C -4.6 °F /  -20.3 °C 1010.4 in /  34212.1 hPa West 12.9 mph /  20.8 km/h 12.9 mph /  20.8 km/h 71 % 0.0 in /  0 mm 0.0 W/m2 CLR
05:05 0.0 °F /  -17.8 °C -4.6 °F /  -20.3 °C 1010.4 in /  34212.1 hPa West 14.8 mph /  23.8 km/h 14.8 mph /  23.8 km/h 71 % 0.0 in /  0 mm 0.0 W/m2 CLR
05:10 0.0 °F /  -17.8 °C -4.6 °F /  -20.3 °C 1010.4 in /  34212.1 hPa West 18.5 mph /  29.8 km/h 18.5 mph /  29.8 km/h 71 % 0.0 in /  0 mm 0.0 W/m2 CLR
05:15 0.0 °F /  -17.8 °C -4.6 °F /  -20.3 °C 1010.4 in /  34212.1 hPa West 11.1 mph /  17.9 km/h 11.1 mph /  17.9 km/h 71 % 0.0 in /  0 mm 0.0 W/m2 CLR
05:20 -0.6 °F /  -18.1 °C -5.0 °F /  -20.6 °C 1010.4 in /  34212.1 hPa West 13.0 mph /  20.9 km/h 13.0 mph /  20.9 km/h 72 % 0.0 in /  0 mm 0.0 W/m2 CLR
05:25 -0.6 °F /  -18.1 °C -5.0 °F /  -20.6 °C 1010.4 in /  34212.1 hPa West 16.7 mph /  26.9 km/h 16.7 mph /  26.9 km/h 72 % 0.0 in /  0 mm 0.0 W/m2 CLR
05:30 -0.6 °F /  -18.1 °C -5.0 °F /  -20.6 °C 1010.4 in /  34212.1 hPa West 16.1 mph /  25.9 km/h 16.1 mph /  25.9 km/h 72 % 0.0 in /  0 mm 0.0 W/m2 CLR
05:35 -1.1 °F /  -18.4 °C -5.5 °F /  -20.8 °C 1010.4 in /  34212.1 hPa West 16.7 mph /  26.9 km/h 16.7 mph /  26.9 km/h 72 % 0.0 in /  0 mm 0.0 W/m2 CLR
05:40 -0.6 °F /  -18.1 °C -5.0 °F /  -20.6 °C 1010.4 in /  34212.1 hPa West 18.5 mph /  29.8 km/h 18.5 mph /  29.8 km/h 72 % 0.0 in /  0 mm 0.0 W/m2 CLR
05:45 -0.6 °F /  -18.1 °C -5.0 °F /  -20.6 °C 1010.4 in /  34212.1 hPa West 18.5 mph /  29.8 km/h 18.5 mph /  29.8 km/h 72 % 0.0 in /  0 mm 0.0 W/m2 CLR
05:50 -0.6 °F /  -18.1 °C -5.0 °F /  -20.6 °C 1010.4 in /  34212.1 hPa West 18.5 mph /  29.8 km/h 18.5 mph /  29.8 km/h 72 % 0.0 in /  0 mm 0.0 W/m2 CLR
05:55 -0.6 °F /  -18.1 °C -4.8 °F /  -20.4 °C 1010.0 in /  34198.6 hPa West 18.5 mph /  29.8 km/h 18.5 mph /  29.8 km/h 73 % 0.0 in /  0 mm 0.0 W/m2 CLR
06:00 -0.6 °F /  -18.1 °C -4.8 °F /  -20.4 °C 1010.0 in /  34198.6 hPa West 18.5 mph /  29.8 km/h 18.5 mph /  29.8 km/h 73 % 0.0 in /  0 mm 0.0 W/m2 CLR
06:05 -0.6 °F /  -18.1 °C -4.8 °F /  -20.4 °C 1010.0 in /  34198.6 hPa West 18.5 mph /  29.8 km/h 18.5 mph /  29.8 km/h 73 % 0.0 in /  0 mm 0.0 W/m2 CLR
06:10 -0.6 °F /  -18.1 °C -4.8 °F /  -20.4 °C 1010.4 in /  34212.1 hPa West 14.8 mph /  23.8 km/h 14.8 mph /  23.8 km/h 73 % 0.0 in /  0 mm 0.0 W/m2 CLR
06:15 0.0 °F /  -17.8 °C -4.3 °F /  -20.2 °C 1010.4 in /  34212.1 hPa West 18.5 mph /  29.8 km/h 18.5 mph /  29.8 km/h 73 % 0.0 in /  0 mm 0.0 W/m2 CLR
06:20 0.0 °F /  -17.8 °C -4.3 °F /  -20.2 °C 1010.0 in /  34198.6 hPa West 16.7 mph /  26.9 km/h 16.7 mph /  26.9 km/h 73 % 0.0 in /  0 mm 0.0 W/m2 CLR
06:25 0.0 °F /  -17.8 °C -4.3 °F /  -20.2 °C 1010.4 in /  34212.1 hPa West 14.8 mph /  23.8 km/h 14.8 mph /  23.8 km/h 73 % 0.0 in /  0 mm 0.0 W/m2 CLR
06:30 0.0 °F /  -17.8 °C -4.3 °F /  -20.2 °C 1010.4 in /  34212.1 hPa West 16.1 mph /  25.9 km/h 16.1 mph /  25.9 km/h 73 % 0.0 in /  0 mm 0.0 W/m2 CLR
06:35 0.0 °F /  -17.8 °C -4.3 °F /  -20.2 °C 1010.4 in /  34212.1 hPa West 18.5 mph /  29.8 km/h 18.5 mph /  29.8 km/h 73 % 0.0 in /  0 mm 0.0 W/m2 CLR
06:40 0.0 °F /  -17.8 °C -4.3 °F /  -20.2 °C 1010.4 in /  34212.1 hPa West 14.8 mph /  23.8 km/h 14.8 mph /  23.8 km/h 73 % 0.0 in /  0 mm 0.0 W/m2 CLR
06:45 0.0 °F /  -17.8 °C -4.3 °F /  -20.2 °C 1010.4 in /  34212.1 hPa West 18.5 mph /  29.8 km/h 18.5 mph /  29.8 km/h 73 % 0.0 in /  0 mm 0.0 W/m2 CLR
06:50 -0.6 °F /  -18.1 °C -4.8 °F /  -20.4 °C 1010.4 in /  34212.1 hPa WNW 14.8 mph /  23.8 km/h 14.8 mph /  23.8 km/h 73 % 0.0 in /  0 mm 0.0 W/m2 CLR
06:55 -0.6 °F /  -18.1 °C -5.0 °F /  -20.6 °C 1010.4 in /  34212.1 hPa WNW 18.5 mph /  29.8 km/h 18.5 mph /  29.8 km/h 72 % 0.0 in /  0 mm 0.0 W/m2 CLR
07:00 -0.6 °F /  -18.1 °C -5.2 °F /  -20.7 °C 1010.4 in /  34212.1 hPa WNW 16.7 mph /  26.9 km/h 16.7 mph /  26.9 km/h 71 % 0.0 in /  0 mm 0.0 W/m2 CLR
07:05 -0.6 °F /  -18.1 °C -5.2 °F /  -20.7 °C 1010.4 in /  34212.1 hPa West 22.2 mph /  35.7 km/h 22.2 mph /  35.7 km/h 71 % 0.0 in /  0 mm 0.0 W/m2 CLR
07:10 -0.6 °F /  -18.1 °C -5.2 °F /  -20.7 °C 1010.4 in /  34212.1 hPa WSW 19.3 mph /  31.1 km/h 19.3 mph /  31.1 km/h 71 % 0.0 in /  0 mm 0.0 W/m2 CLR
07:15 0.0 °F /  -17.8 °C -4.6 °F /  -20.3 °C 1010.4 in /  34212.1 hPa West 11.3 mph /  18.2 km/h 11.3 mph /  18.2 km/h 71 % 0.0 in /  0 mm 0.0 W/m2 CLR
07:20 0.0 °F /  -17.8 °C -4.4 °F /  -20.2 °C 1010.4 in /  34212.1 hPa West 25.9 mph /  41.7 km/h 25.9 mph /  41.7 km/h 72 % 0.0 in /  0 mm 0.0 W/m2 CLR
07:25 0.0 °F /  -17.8 °C -4.4 °F /  -20.2 °C 1010.4 in /  34212.1 hPa NW 16.7 mph /  26.9 km/h 16.7 mph /  26.9 km/h 72 % 0.0 in /  0 mm 0.0 W/m2 CLR
07:30 0.0 °F /  -17.8 °C -4.4 °F /  -20.2 °C 1010.4 in /  34212.1 hPa West 22.2 mph /  35.7 km/h 22.2 mph /  35.7 km/h 72 % 0.0 in /  0 mm 0.0 W/m2 CLR
07:35 0.0 °F /  -17.8 °C -4.4 °F /  -20.2 °C 1010.4 in /  34212.1 hPa WNW 25.9 mph /  41.7 km/h 25.9 mph /  41.7 km/h 72 % 0.0 in /  0 mm 0.0 W/m2 OVC
07:40 -0.6 °F /  -18.1 °C -5.0 °F /  -20.6 °C 1010.4 in /  34212.1 hPa WNW 18.5 mph /  29.8 km/h 18.5 mph /  29.8 km/h 72 % 0.0 in /  0 mm 0.0 W/m2 OVC
07:45 -0.6 °F /  -18.1 °C -5.0 °F /  -20.6 °C 1010.4 in /  34212.1 hPa West 20.4 mph /  32.8 km/h 20.4 mph /  32.8 km/h 72 % 0.0 in /  0 mm 5.0 W/m2 OVC
07:50 -0.6 °F /  -18.1 °C -5.2 °F /  -20.7 °C 1010.4 in /  34212.1 hPa WNW 18.5 mph /  29.8 km/h 18.5 mph /  29.8 km/h 71 % 0.0 in /  0 mm 9.0 W/m2 BKN
07:55 -0.6 °F /  -18.1 °C -5.2 °F /  -20.7 °C 1010.7 in /  34222.3 hPa WNW 18.5 mph /  29.8 km/h 18.5 mph /  29.8 km/h 71 % 0.0 in /  0 mm 12.0 W/m2 BKN
08:00 0.0 °F /  -17.8 °C -4.6 °F /  -20.3 °C 1010.4 in /  34212.1 hPa WNW 24.1 mph /  38.8 km/h 24.1 mph /  38.8 km/h 71 % 0.0 in /  0 mm 16.0 W/m2 BKN
08:05 0.0 °F /  -17.8 °C -4.8 °F /  -20.4 °C 1010.7 in /  34222.3 hPa WNW 20.9 mph /  33.6 km/h 20.9 mph /  33.6 km/h 70 % 0.0 in /  0 mm 19.0 W/m2 BKN
08:10 0.0 °F /  -17.8 °C -4.8 °F /  -20.4 °C 1010.7 in /  34222.3 hPa WNW 20.4 mph /  32.8 km/h 20.4 mph /  32.8 km/h 70 % 0.0 in /  0 mm 25.0 W/m2 BKN
08:15 0.0 °F /  -17.8 °C -4.8 °F /  -20.4 °C 1010.7 in /  34222.3 hPa WNW 18.5 mph /  29.8 km/h 18.5 mph /  29.8 km/h 70 % 0.0 in /  0 mm 28.0 W/m2 BKN
08:20 0.6 °F /  -17.4 °C -4.3 °F /  -20.2 °C 1010.7 in /  34222.3 hPa West 11.1 mph /  17.9 km/h 11.1 mph /  17.9 km/h 70 % 0.0 in /  0 mm 42.0 W/m2 BKN
08:25 0.6 °F /  -17.4 °C -4.1 °F /  -20.1 °C 1010.7 in /  34222.3 hPa West 14.8 mph /  23.8 km/h 14.8 mph /  23.8 km/h 71 % 0.0 in /  0 mm 47.0 W/m2 SCT
08:30 0.6 °F /  -17.4 °C -4.1 °F /  -20.1 °C 1010.7 in /  34222.3 hPa WNW 7.4 mph /  11.9 km/h 7.4 mph /  11.9 km/h 71 % 0.0 in /  0 mm 63.0 W/m2 SCT
08:35 0.6 °F /  -17.4 °C -4.1 °F /  -20.1 °C 1010.7 in /  34222.3 hPa WNW 14.8 mph /  23.8 km/h 14.8 mph /  23.8 km/h 71 % 0.0 in /  0 mm 77.0 W/m2 FEW
08:40 1.1 °F /  -17.2 °C -3.9 °F /  -19.9 °C 1010.7 in /  34222.3 hPa NW 24.1 mph /  38.8 km/h 24.1 mph /  38.8 km/h 69 % 0.0 in /  0 mm 91.0 W/m2 CLR
08:45 1.1 °F /  -17.2 °C -4.2 °F /  -20.1 °C 1011.1 in /  34235.8 hPa NW 22.2 mph /  35.7 km/h 22.2 mph /  35.7 km/h 68 % 0.0 in /  0 mm 109.0 W/m2 CLR
08:50 1.1 °F /  -17.2 °C -4.3 °F /  -20.2 °C 1010.7 in /  34222.3 hPa WNW 18.5 mph /  29.8 km/h 18.5 mph /  29.8 km/h 67 % 0.0 in /  0 mm 113.0 W/m2 CLR
08:55 1.7 °F /  -16.8 °C -3.8 °F /  -19.9 °C 1011.1 in /  34235.8 hPa WNW 18.5 mph /  29.8 km/h 18.5 mph /  29.8 km/h 67 % 0.0 in /  0 mm 139.0 W/m2 CLR
09:00 1.7 °F /  -16.8 °C -4.0 °F /  -20 °C 1011.1 in /  34235.8 hPa WNW 24.1 mph /  38.8 km/h 24.1 mph /  38.8 km/h 66 % 0.0 in /  0 mm 151.0 W/m2 CLR
09:05 1.7 °F /  -16.8 °C -4.2 °F /  -20.1 °C 1011.1 in /  34235.8 hPa WNW 20.9 mph /  33.6 km/h 20.9 mph /  33.6 km/h 65 % 0.0 in /  0 mm 153.0 W/m2 CLR
09:10 1.7 °F /  -16.8 °C -4.2 °F /  -20.1 °C 1011.1 in /  34235.8 hPa West 25.9 mph /  41.7 km/h 25.9 mph /  41.7 km/h 65 % 0.0 in /  0 mm 190.0 W/m2 CLR
09:15 2.2 °F /  -16.6 °C -3.9 °F /  -19.9 °C 1011.1 in /  34235.8 hPa WNW 22.2 mph /  35.7 km/h 22.2 mph /  35.7 km/h 64 % 0.0 in /  0 mm 206.0 W/m2 CLR
09:20 2.2 °F /  -16.6 °C -3.9 °F /  -19.9 °C 1011.1 in /  34235.8 hPa NNW 22.5 mph /  36.2 km/h 22.5 mph /  36.2 km/h 64 % 0.0 in /  0 mm 225.0 W/m2 CLR
09:25 2.8 °F /  -16.2 °C -3.4 °F /  -19.7 °C 1011.1 in /  34235.8 hPa WNW 18.5 mph /  29.8 km/h 18.5 mph /  29.8 km/h 64 % 0.0 in /  0 mm 241.0 W/m2 CLR
09:31 2.8 °F /  -16.2 °C -3.6 °F /  -19.8 °C 1011.1 in /  34235.8 hPa NW 16.7 mph /  26.9 km/h 16.7 mph /  26.9 km/h 63 % 0.0 in /  0 mm 260.0 W/m2 CLR
09:35 2.8 °F /  -16.2 °C -3.6 °F /  -19.8 °C 1011.1 in /  34235.8 hPa WNW 18.5 mph /  29.8 km/h 18.5 mph /  29.8 km/h 63 % 0.0 in /  0 mm 272.0 W/m2 CLR
09:41 3.3 °F /  -15.9 °C -3.3 °F /  -19.6 °C 1011.1 in /  34235.8 hPa NW 20.4 mph /  32.8 km/h 20.4 mph /  32.8 km/h 62 % 0.0 in /  0 mm 287.0 W/m2 CLR
09:46 3.3 °F /  -15.9 °C -3.1 °F /  -19.5 °C 1011.1 in /  34235.8 hPa NNW 18.5 mph /  29.8 km/h 18.5 mph /  29.8 km/h 63 % 0.0 in /  0 mm 299.0 W/m2 CLR
09:51 3.3 °F /  -15.9 °C -3.1 °F /  -19.5 °C 1011.1 in /  34235.8 hPa NNW 20.9 mph /  33.6 km/h 20.9 mph /  33.6 km/h 63 % 0.0 in /  0 mm 316.0 W/m2 CLR
09:56 3.3 °F /  -15.9 °C -3.3 °F /  -19.6 °C 1011.4 in /  34246 hPa NW 24.1 mph /  38.8 km/h 24.1 mph /  38.8 km/h 62 % 0.0 in /  0 mm 332.0 W/m2 CLR
10:01 3.3 °F /  -15.9 °C -3.5 °F /  -19.7 °C 1011.4 in /  34246 hPa WNW 27.8 mph /  44.7 km/h 27.8 mph /  44.7 km/h 61 % 0.0 in /  0 mm 348.0 W/m2 CLR
10:06 3.9 °F /  -15.6 °C -2.9 °F /  -19.4 °C 1011.4 in /  34246 hPa NW 29.6 mph /  47.6 km/h 29.6 mph /  47.6 km/h 61 % 0.0 in /  0 mm 359.0 W/m2 CLR
10:11 3.9 °F /  -15.6 °C -2.9 °F /  -19.4 °C 1011.4 in /  34246 hPa WNW 29.0 mph /  46.7 km/h 29.0 mph /  46.7 km/h 61 % 0.0 in /  0 mm 371.0 W/m2 CLR
10:16 3.9 °F /  -15.6 °C -2.9 °F /  -19.4 °C 1011.4 in /  34246 hPa NW 25.9 mph /  41.7 km/h 25.9 mph /  41.7 km/h 61 % 0.0 in /  0 mm 390.0 W/m2 CLR
10:21 3.9 °F /  -15.6 °C -3.2 °F /  -19.6 °C 1011.4 in /  34246 hPa WNW 27.8 mph /  44.7 km/h 27.8 mph /  44.7 km/h 60 % 0.0 in /  0 mm 396.0 W/m2 CLR
10:26 4.4 °F /  -15.3 °C -2.7 °F /  -19.3 °C 1011.4 in /  34246 hPa NW 22.2 mph /  35.7 km/h 22.2 mph /  35.7 km/h 60 % 0.0 in /  0 mm 415.0 W/m2 CLR
10:31 4.4 °F /  -15.3 °C -2.9 °F /  -19.4 °C 1011.4 in /  34246 hPa NW 24.1 mph /  38.8 km/h 24.1 mph /  38.8 km/h 59 % 0.0 in /  0 mm 420.0 W/m2 CLR
10:36 4.4 °F /  -15.3 °C -2.9 °F /  -19.4 °C 1011.4 in /  34246 hPa NW 18.5 mph /  29.8 km/h 18.5 mph /  29.8 km/h 59 % 0.0 in /  0 mm 441.0 W/m2 CLR
10:41 4.4 °F /  -15.3 °C -3.1 °F /  -19.5 °C 1011.4 in /  34246 hPa North 22.5 mph /  36.2 km/h 22.5 mph /  36.2 km/h 58 % 0.0 in /  0 mm 455.0 W/m2 CLR
10:46 5.0 °F /  -15 °C -2.6 °F /  -19.2 °C 1011.4 in /  34246 hPa NW 22.2 mph /  35.7 km/h 22.2 mph /  35.7 km/h 58 % 0.0 in /  0 mm 464.0 W/m2 CLR
10:51 5.0 °F /  -15 °C -2.8 °F /  -19.3 °C 1011.4 in /  34246 hPa NW 25.9 mph /  41.7 km/h 25.9 mph /  41.7 km/h 57 % 0.0 in /  0 mm 478.0 W/m2 CLR
10:56 5.0 °F /  -15 °C -2.8 °F /  -19.3 °C 1011.1 in /  34235.8 hPa NW 29.6 mph /  47.6 km/h 29.6 mph /  47.6 km/h 57 % 0.0 in /  0 mm 487.0 W/m2 CLR
11:01 5.6 °F /  -14.7 °C -2.3 °F /  -19.1 °C 1011.4 in /  34246 hPa WNW 27.8 mph /  44.7 km/h 27.8 mph /  44.7 km/h 57 % 0.0 in /  0 mm 497.0 W/m2 CLR
11:06 5.6 °F /  -14.7 °C -2.6 °F /  -19.2 °C 1011.4 in /  34246 hPa NW 24.1 mph /  38.8 km/h 24.1 mph /  38.8 km/h 56 % 0.0 in /  0 mm 506.0 W/m2 CLR
11:11 6.1 °F /  -14.4 °C -2.5 °F /  -19.2 °C 1011.1 in /  34235.8 hPa NW 27.8 mph /  44.7 km/h 27.8 mph /  44.7 km/h 54 % 0.0 in /  0 mm 522.0 W/m2 CLR
11:16 5.6 °F /  -14.7 °C -3.1 °F /  -19.5 °C 1011.4 in /  34246 hPa NNW 27.8 mph /  44.7 km/h 27.8 mph /  44.7 km/h 54 % 0.0 in /  0 mm 534.0 W/m2 CLR
11:21 6.1 °F /  -14.4 °C -2.3 °F /  -19.1 °C 1011.4 in /  34246 hPa NNW 20.4 mph /  32.8 km/h 20.4 mph /  32.8 km/h 55 % 0.0 in /  0 mm 536.0 W/m2 CLR
11:26 6.1 °F /  -14.4 °C -2.5 °F /  -19.2 °C 1011.4 in /  34246 hPa NNW 25.9 mph /  41.7 km/h 25.9 mph /  41.7 km/h 54 % 0.0 in /  0 mm 554.0 W/m2 CLR
11:31 6.7 °F /  -14.1 °C -2.0 °F /  -18.9 °C 1011.1 in /  34235.8 hPa NW 22.2 mph /  35.7 km/h 22.2 mph /  35.7 km/h 54 % 0.0 in /  0 mm 561.0 W/m2 CLR
11:36 6.7 °F /  -14.1 °C -2.0 °F /  -18.9 °C 1011.1 in /  34235.8 hPa NNW 13.0 mph /  20.9 km/h 13.0 mph /  20.9 km/h 54 % 0.0 in /  0 mm 573.0 W/m2 CLR
11:41 6.7 °F /  -14.1 °C -2.5 °F /  -19.2 °C 1011.1 in /  34235.8 hPa WNW 22.2 mph /  35.7 km/h 22.2 mph /  35.7 km/h 52 % 0.0 in /  0 mm 578.0 W/m2 CLR
11:46 6.7 °F /  -14.1 °C -2.8 °F /  -19.3 °C 1011.1 in /  34235.8 hPa WNW 31.5 mph /  50.7 km/h 31.5 mph /  50.7 km/h 51 % 0.0 in /  0 mm 587.0 W/m2 CLR
11:51 6.7 °F /  -14.1 °C -2.5 °F /  -19.2 °C 1011.1 in /  34235.8 hPa NW 24.1 mph /  38.8 km/h 24.1 mph /  38.8 km/h 52 % 0.0 in /  0 mm 596.0 W/m2 CLR
11:56 6.7 °F /  -14.1 °C -3.1 °F /  -19.5 °C 1011.1 in /  34235.8 hPa North 22.2 mph /  35.7 km/h 22.2 mph /  35.7 km/h 50 % 0.0 in /  0 mm 599.0 W/m2 CLR
12:01 7.2 °F /  -13.8 °C -2.8 °F /  -19.3 °C 1011.1 in /  34235.8 hPa NNW 19.3 mph /  31.1 km/h 19.3 mph /  31.1 km/h 49 % 0.0 in /  0 mm 596.0 W/m2 CLR
12:06 7.2 °F /  -13.8 °C -2.8 °F /  -19.3 °C 1011.1 in /  34235.8 hPa NW 18.5 mph /  29.8 km/h 18.5 mph /  29.8 km/h 49 % 0.0 in /  0 mm 612.0 W/m2 CLR
12:11 7.2 °F /  -13.8 °C -2.8 °F /  -19.3 °C 1011.1 in /  34235.8 hPa NW 20.4 mph /  32.8 km/h 20.4 mph /  32.8 km/h 49 % 0.0 in /  0 mm 613.0 W/m2 CLR
12:16 7.8 °F /  -13.4 °C -2.6 °F /  -19.2 °C 1011.1 in /  34235.8 hPa NW 25.9 mph /  41.7 km/h 25.9 mph /  41.7 km/h 48 % 0.0 in /  0 mm 628.0 W/m2 CLR
12:21 7.8 °F /  -13.4 °C -2.8 °F /  -19.3 °C 1011.1 in /  34235.8 hPa NNW 27.8 mph /  44.7 km/h 27.8 mph /  44.7 km/h 47 % 0.0 in /  0 mm 629.0 W/m2 CLR
12:26 7.8 °F /  -13.4 °C -3.1 °F /  -19.5 °C 1011.1 in /  34235.8 hPa NW 27.8 mph /  44.7 km/h 27.8 mph /  44.7 km/h 46 % 0.0 in /  0 mm 631.0 W/m2 CLR
12:31 7.8 °F /  -13.4 °C -3.1 °F /  -19.5 °C 1011.1 in /  34235.8 hPa NNW 31.5 mph /  50.7 km/h 31.5 mph /  50.7 km/h 46 % 0.0 in /  0 mm 636.0 W/m2 CLR
12:36 7.8 °F /  -13.4 °C -3.4 °F /  -19.7 °C 1010.7 in /  34222.3 hPa NNW 35.2 mph /  56.6 km/h 35.2 mph /  56.6 km/h 45 % 0.0 in /  0 mm 638.0 W/m2 CLR
12:41 8.3 °F /  -13.2 °C -2.9 °F /  -19.4 °C 1010.7 in /  34222.3 hPa NNW 29.0 mph /  46.7 km/h 29.0 mph /  46.7 km/h 45 % 0.0 in /  0 mm 638.0 W/m2 CLR
12:46 8.9 °F /  -12.8 °C -2.7 °F /  -19.3 °C 1010.7 in /  34222.3 hPa North 20.4 mph /  32.8 km/h 20.4 mph /  32.8 km/h 44 % 0.0 in /  0 mm 645.0 W/m2 CLR
12:51 8.9 °F /  -12.8 °C -2.4 °F /  -19.1 °C 1010.7 in /  34222.3 hPa NNW 22.2 mph /  35.7 km/h 22.2 mph /  35.7 km/h 45 % 0.0 in /  0 mm 645.0 W/m2 CLR
12:56 8.9 °F /  -12.8 °C -2.7 °F /  -19.3 °C 1010.7 in /  34222.3 hPa NNW 24.1 mph /  38.8 km/h 24.1 mph /  38.8 km/h 44 % 0.0 in /  0 mm 654.0 W/m2 CLR
13:01 8.9 °F /  -12.8 °C -3.3 °F /  -19.6 °C 1010.4 in /  34212.1 hPa NW 29.6 mph /  47.6 km/h 29.6 mph /  47.6 km/h 42 % 0.0 in /  0 mm 652.0 W/m2 CLR
13:06 8.3 °F /  -13.2 °C -3.6 °F /  -19.8 °C 1010.4 in /  34212.1 hPa NW 29.0 mph /  46.7 km/h 29.0 mph /  46.7 km/h 43 % 0.0 in /  0 mm 663.0 W/m2 CLR
13:11 8.9 °F /  -12.8 °C -3.3 °F /  -19.6 °C 1010.4 in /  34212.1 hPa NW 19.3 mph /  31.1 km/h 19.3 mph /  31.1 km/h 42 % 0.0 in /  0 mm 654.0 W/m2 CLR
13:16 8.9 °F /  -12.8 °C -3.3 °F /  -19.6 °C 1010.0 in /  34198.6 hPa NW 25.9 mph /  41.7 km/h 25.9 mph /  41.7 km/h 42 % 0.0 in /  0 mm 661.0 W/m2 CLR
13:21 8.9 °F /  -12.8 °C -3.7 °F /  -19.8 °C 1010.0 in /  34198.6 hPa NW 22.2 mph /  35.7 km/h 22.2 mph /  35.7 km/h 41 % 0.0 in /  0 mm 661.0 W/m2 CLR
13:26 8.9 °F /  -12.8 °C -3.7 °F /  -19.8 °C 1010.0 in /  34198.6 hPa WNW 24.1 mph /  38.8 km/h 24.1 mph /  38.8 km/h 41 % 0.0 in /  0 mm 654.0 W/m2 CLR
13:31 8.3 °F /  -13.2 °C -4.2 °F /  -20.1 °C 1009.7 in /  34188.4 hPa NW 19.3 mph /  31.1 km/h 19.3 mph /  31.1 km/h 41 % 0.0 in /  0 mm 652.0 W/m2 CLR
13:36 8.9 °F /  -12.8 °C -4.0 °F /  -20 °C 1009.7 in /  34188.4 hPa WNW 14.8 mph /  23.8 km/h 14.8 mph /  23.8 km/h 40 % 0.0 in /  0 mm 652.0 W/m2 CLR
13:41 8.9 °F /  -12.8 °C -3.7 °F /  -19.8 °C 1009.7 in /  34188.4 hPa NNW 22.5 mph /  36.2 km/h 22.5 mph /  36.2 km/h 41 % 0.0 in /  0 mm 650.0 W/m2 CLR
13:46 9.4 °F /  -12.6 °C -3.5 °F /  -19.7 °C 1009.7 in /  34188.4 hPa NNW 9.3 mph /  15 km/h 9.3 mph /  15 km/h 40 % 0.0 in /  0 mm 647.0 W/m2 CLR
13:51 9.4 °F /  -12.6 °C -3.5 °F /  -19.7 °C 1009.7 in /  34188.4 hPa NW 22.2 mph /  35.7 km/h 22.2 mph /  35.7 km/h 40 % 0.0 in /  0 mm 649.0 W/m2 CLR
13:56 9.4 °F /  -12.6 °C -3.5 °F /  -19.7 °C 1009.7 in /  34188.4 hPa West 25.9 mph /  41.7 km/h 25.9 mph /  41.7 km/h 40 % 0.0 in /  0 mm 642.0 W/m2 CLR
14:01 9.4 °F /  -12.6 °C -3.5 °F /  -19.7 °C 1009.7 in /  34188.4 hPa NNW 20.4 mph /  32.8 km/h 20.4 mph /  32.8 km/h 40 % 0.0 in /  0 mm 635.0 W/m2 CLR
14:06 9.4 °F /  -12.6 °C -3.2 °F /  -19.6 °C 1009.7 in /  34188.4 hPa NW 24.1 mph /  38.8 km/h 24.1 mph /  38.8 km/h 41 % 0.0 in /  0 mm 638.0 W/m2 CLR
14:11 9.4 °F /  -12.6 °C -3.2 °F /  -19.6 °C 1009.7 in /  34188.4 hPa North 16.7 mph /  26.9 km/h 16.7 mph /  26.9 km/h 41 % 0.0 in /  0 mm 633.0 W/m2 CLR
14:16 10.0 °F /  -12.2 °C -3.3 °F /  -19.6 °C 1009.7 in /  34188.4 hPa North 20.9 mph /  33.6 km/h 20.9 mph /  33.6 km/h 39 % 0.0 in /  0 mm 622.0 W/m2 CLR
14:21 10.0 °F /  -12.2 °C -3.0 °F /  -19.4 °C 1009.4 in /  34178.3 hPa NW 25.9 mph /  41.7 km/h 25.9 mph /  41.7 km/h 40 % 0.0 in /  0 mm 624.0 W/m2 CLR
14:26 10.0 °F /  -12.2 °C -3.0 °F /  -19.4 °C 1009.4 in /  34178.3 hPa NNW 16.7 mph /  26.9 km/h 16.7 mph /  26.9 km/h 40 % 0.0 in /  0 mm 612.0 W/m2 CLR
14:31 10.0 °F /  -12.2 °C -2.7 °F /  -19.3 °C 1009.4 in /  34178.3 hPa NW 18.5 mph /  29.8 km/h 18.5 mph /  29.8 km/h 41 % 0.0 in /  0 mm 603.0 W/m2 CLR
14:41 10.0 °F /  -12.2 °C -2.0 °F /  -18.9 °C 1009.4 in /  34178.3 hPa North 20.4 mph /  32.8 km/h 20.4 mph /  32.8 km/h 43 % 0.0 in /  0 mm 589.0 W/m2 CLR
14:46 10.0 °F /  -12.2 °C -3.0 °F /  -19.4 °C 1009.4 in /  34178.3 hPa North 22.2 mph /  35.7 km/h 22.2 mph /  35.7 km/h 40 % 0.0 in /  0 mm 580.0 W/m2 CLR
14:51 10.0 °F /  -12.2 °C -2.3 °F /  -19.1 °C 1009.4 in /  34178.3 hPa NW 20.9 mph /  33.6 km/h 20.9 mph /  33.6 km/h 42 % 0.0 in /  0 mm 571.0 W/m2 CLR
14:56 10.0 °F /  -12.2 °C -2.3 °F /  -19.1 °C 1009.4 in /  34178.3 hPa NNW 25.9 mph /  41.7 km/h 25.9 mph /  41.7 km/h 42 % 0.0 in /  0 mm 568.0 W/m2 CLR
15:01 10.0 °F /  -12.2 °C -2.7 °F /  -19.3 °C 1009.4 in /  34178.3 hPa NW 18.5 mph /  29.8 km/h 18.5 mph /  29.8 km/h 41 % 0.0 in /  0 mm 554.0 W/m2 CLR
15:06 9.4 °F /  -12.6 °C -3.5 °F /  -19.7 °C 1009.4 in /  34178.3 hPa NNW 14.8 mph /  23.8 km/h 14.8 mph /  23.8 km/h 40 % 0.0 in /  0 mm 543.0 W/m2 CLR
15:11 9.4 °F /  -12.6 °C -2.5 °F /  -19.2 °C 1009.4 in /  34178.3 hPa NNW 14.8 mph /  23.8 km/h 14.8 mph /  23.8 km/h 43 % 0.0 in /  0 mm 536.0 W/m2 CLR
15:16 10.0 °F /  -12.2 °C -2.0 °F /  -18.9 °C 1009.4 in /  34178.3 hPa NNE 19.3 mph /  31.1 km/h 19.3 mph /  31.1 km/h 43 % 0.0 in /  0 mm 520.0 W/m2 CLR
15:21 10.0 °F /  -12.2 °C -1.7 °F /  -18.7 °C 1009.4 in /  34178.3 hPa NNW 18.5 mph /  29.8 km/h 18.5 mph /  29.8 km/h 44 % 0.0 in /  0 mm 517.0 W/m2 CLR
15:26 9.4 °F /  -12.6 °C -2.5 °F /  -19.2 °C 1009.4 in /  34178.3 hPa North 14.8 mph /  23.8 km/h 14.8 mph /  23.8 km/h 43 % 0.0 in /  0 mm 499.0 W/m2 CLR
15:31 9.4 °F /  -12.6 °C -2.5 °F /  -19.2 °C 1009.4 in /  34178.3 hPa North 17.7 mph /  28.5 km/h 17.7 mph /  28.5 km/h 43 % 0.0 in /  0 mm 499.0 W/m2 CLR
15:36 9.4 °F /  -12.6 °C -3.2 °F /  -19.6 °C 1009.0 in /  34164.7 hPa WNW 11.1 mph /  17.9 km/h 11.1 mph /  17.9 km/h 41 % 0.0 in /  0 mm 478.0 W/m2 CLR
15:41 9.4 °F /  -12.6 °C -2.2 °F /  -19 °C 1009.0 in /  34164.7 hPa North 14.8 mph /  23.8 km/h 14.8 mph /  23.8 km/h 44 % 0.0 in /  0 mm 471.0 W/m2 CLR
15:46 10.0 °F /  -12.2 °C -1.7 °F /  -18.7 °C 1009.0 in /  34164.7 hPa North 18.5 mph /  29.8 km/h 18.5 mph /  29.8 km/h 44 % 0.0 in /  0 mm 464.0 W/m2 CLR
15:51 10.0 °F /  -12.2 °C -2.0 °F /  -18.9 °C 1009.0 in /  34164.7 hPa NW 24.1 mph /  38.8 km/h 24.1 mph /  38.8 km/h 43 % 0.0 in /  0 mm 445.0 W/m2 CLR
15:56 9.4 °F /  -12.6 °C -2.5 °F /  -19.2 °C 1009.0 in /  34164.7 hPa NW 11.1 mph /  17.9 km/h 11.1 mph /  17.9 km/h 43 % 0.0 in /  0 mm 431.0 W/m2 CLR
16:01 9.4 °F /  -12.6 °C -2.2 °F /  -19 °C 1009.0 in /  34164.7 hPa NNW 19.3 mph /  31.1 km/h 19.3 mph /  31.1 km/h 44 % 0.0 in /  0 mm 420.0 W/m2 CLR
16:06 9.4 °F /  -12.6 °C -2.2 °F /  -19 °C 1009.0 in /  34164.7 hPa North 18.5 mph /  29.8 km/h 18.5 mph /  29.8 km/h 44 % 0.0 in /  0 mm 410.0 W/m2 CLR
16:11 9.4 °F /  -12.6 °C -2.2 °F /  -19 °C 1009.0 in /  34164.7 hPa NW 25.9 mph /  41.7 km/h 25.9 mph /  41.7 km/h 44 % 0.0 in /  0 mm 397.0 W/m2 CLR
16:16 9.4 °F /  -12.6 °C -1.9 °F /  -18.8 °C 1009.0 in /  34164.7 hPa NNW 13.0 mph /  20.9 km/h 13.0 mph /  20.9 km/h 45 % 0.0 in /  0 mm 381.0 W/m2 CLR
16:22 9.4 °F /  -12.6 °C -1.9 °F /  -18.8 °C 1009.0 in /  34164.7 hPa NNW 5.6 mph /  9 km/h   45 % 0.0 in /  0 mm 371.0 W/m2 CLR
16:27 8.9 °F /  -12.8 °C -2.4 °F /  -19.1 °C 1009.0 in /  34164.7 hPa NNW 18.5 mph /  29.8 km/h 18.5 mph /  29.8 km/h 45 % 0.0 in /  0 mm 357.0 W/m2 CLR
16:32 8.9 °F /  -12.8 °C -2.1 °F /  -18.9 °C 1009.0 in /  34164.7 hPa North 22.2 mph /  35.7 km/h 22.2 mph /  35.7 km/h 46 % 0.0 in /  0 mm 332.0 W/m2 CLR
16:37 8.9 °F /  -12.8 °C -2.1 °F /  -18.9 °C 1009.0 in /  34164.7 hPa North 13.0 mph /  20.9 km/h 13.0 mph /  20.9 km/h 46 % 0.0 in /  0 mm 323.0 W/m2 CLR
16:42 8.9 °F /  -12.8 °C -2.1 °F /  -18.9 °C 1009.0 in /  34164.7 hPa NNE 17.7 mph /  28.5 km/h 17.7 mph /  28.5 km/h 46 % 0.0 in /  0 mm 311.0 W/m2 CLR
16:47 8.9 °F /  -12.8 °C -2.1 °F /  -18.9 °C 1009.0 in /  34164.7 hPa North 22.2 mph /  35.7 km/h 22.2 mph /  35.7 km/h 46 % 0.0 in /  0 mm 292.0 W/m2 CLR
16:52 8.9 °F /  -12.8 °C -2.1 °F /  -18.9 °C 1009.0 in /  34164.7 hPa NW 16.7 mph /  26.9 km/h 16.7 mph /  26.9 km/h 46 % 0.0 in /  0 mm 274.0 W/m2 CLR
16:57 8.9 °F /  -12.8 °C -2.1 °F /  -18.9 °C 1009.0 in /  34164.7 hPa North 18.5 mph /  29.8 km/h 18.5 mph /  29.8 km/h 46 % 0.0 in /  0 mm 262.0 W/m2 CLR
17:02 8.9 °F /  -12.8 °C -1.8 °F /  -18.8 °C 1009.0 in /  34164.7 hPa NNW 16.7 mph /  26.9 km/h 16.7 mph /  26.9 km/h 47 % 0.0 in /  0 mm 250.0 W/m2 CLR
17:07 8.9 °F /  -12.8 °C -1.8 °F /  -18.8 °C 1009.0 in /  34164.7 hPa NW 14.8 mph /  23.8 km/h 14.8 mph /  23.8 km/h 47 % 0.0 in /  0 mm 227.0 W/m2 CLR
17:12 8.9 °F /  -12.8 °C -1.8 °F /  -18.8 °C 1009.0 in /  34164.7 hPa North 11.1 mph /  17.9 km/h 11.1 mph /  17.9 km/h 47 % 0.0 in /  0 mm 207.0 W/m2 CLR
17:17 8.3 °F /  -13.2 °C -2.3 °F /  -19.1 °C 1009.0 in /  34164.7 hPa North 18.5 mph /  29.8 km/h 18.5 mph /  29.8 km/h 47 % 0.0 in /  0 mm 193.0 W/m2 CLR
17:27 8.3 °F /  -13.2 °C -2.1 °F /  -18.9 °C 1009.0 in /  34164.7 hPa North 16.7 mph /  26.9 km/h 16.7 mph /  26.9 km/h 48 % 0.0 in /  0 mm 155.0 W/m2 CLR
17:32 7.8 °F /  -13.4 °C -2.3 °F /  -19.1 °C 1009.0 in /  34164.7 hPa North 13.0 mph /  20.9 km/h 13.0 mph /  20.9 km/h 49 % 0.0 in /  0 mm 134.0 W/m2 CLR
17:37 7.8 °F /  -13.4 °C -2.3 °F /  -19.1 °C 1009.4 in /  34178.3 hPa North 18.5 mph /  29.8 km/h 18.5 mph /  29.8 km/h 49 % 0.0 in /  0 mm 120.0 W/m2 CLR
17:42 7.8 °F /  -13.4 °C -2.0 °F /  -18.9 °C 1009.4 in /  34178.3 hPa North 16.7 mph /  26.9 km/h 16.7 mph /  26.9 km/h 50 % 0.0 in /  0 mm 109.0 W/m2 CLR
17:47 7.2 °F /  -13.8 °C -2.5 °F /  -19.2 °C 1009.4 in /  34178.3 hPa NNE 18.5 mph /  29.8 km/h 18.5 mph /  29.8 km/h 50 % 0.0 in /  0 mm 95.0 W/m2 CLR
17:52 7.2 °F /  -13.8 °C -2.3 °F /  -19.1 °C 1009.0 in /  34164.7 hPa NNW 16.7 mph /  26.9 km/h 16.7 mph /  26.9 km/h 51 % 0.0 in /  0 mm 76.0 W/m2 FEW
17:57 7.2 °F /  -13.8 °C -2.3 °F /  -19.1 °C 1009.0 in /  34164.7 hPa North 14.8 mph /  23.8 km/h 14.8 mph /  23.8 km/h 51 % 0.0 in /  0 mm 63.0 W/m2 SCT
18:02 6.7 °F /  -14.1 °C -2.8 °F /  -19.3 °C 1009.4 in /  34178.3 hPa NNW 14.8 mph /  23.8 km/h 14.8 mph /  23.8 km/h 51 % 0.0 in /  0 mm 54.0 W/m2 SCT
18:07 6.7 °F /  -14.1 °C -2.8 °F /  -19.3 °C 1009.4 in /  34178.3 hPa NW 5.6 mph /  9 km/h 5.6 mph /  9 km/h 51 % 0.0 in /  0 mm 44.0 W/m2 SCT
18:12 6.7 °F /  -14.1 °C -2.5 °F /  -19.2 °C 1009.4 in /  34178.3 hPa Calm     52 % 0.0 in /  0 mm 35.0 W/m2 BKN
18:17 6.7 °F /  -14.1 °C -2.5 °F /  -19.2 °C 1009.4 in /  34178.3 hPa Calm     52 % 0.0 in /  0 mm 28.0 W/m2 BKN
18:22 6.1 °F /  -14.4 °C -2.8 °F /  -19.3 °C 1009.4 in /  34178.3 hPa Calm     53 % 0.0 in /  0 mm 23.0 W/m2 BKN
18:27 6.1 °F /  -14.4 °C -2.8 °F /  -19.3 °C 1009.4 in /  34178.3 hPa NNW 8.0 mph /  12.9 km/h 8.0 mph /  12.9 km/h 53 % 0.0 in /  0 mm 18.0 W/m2 BKN
18:32 6.1 °F /  -14.4 °C -2.5 °F /  -19.2 °C 1009.4 in /  34178.3 hPa NNW 11.1 mph /  17.9 km/h 11.1 mph /  17.9 km/h 54 % 0.0 in /  0 mm 12.0 W/m2 BKN
18:37 5.6 °F /  -14.7 °C -2.8 °F /  -19.3 °C 1009.4 in /  34178.3 hPa Calm     55 % 0.0 in /  0 mm 9.0 W/m2 BKN
18:42 5.6 °F /  -14.7 °C -2.8 °F /  -19.3 °C 1009.4 in /  34178.3 hPa Calm     55 % 0.0 in /  0 mm 5.0 W/m2 OVC
18:47 5.0 °F /  -15 °C -3.1 °F /  -19.5 °C 1009.7 in /  34188.4 hPa Calm     56 % 0.0 in /  0 mm 0.0 W/m2 OVC
18:52 4.4 °F /  -15.3 °C -3.3 °F /  -19.6 °C 1009.7 in /  34188.4 hPa Calm     57 % 0.0 in /  0 mm 0.0 W/m2 OVC
18:57 4.4 °F /  -15.3 °C -3.1 °F /  -19.5 °C 1009.7 in /  34188.4 hPa Calm     58 % 0.0 in /  0 mm 0.0 W/m2 CLR
19:02 4.4 °F /  -15.3 °C -2.9 °F /  -19.4 °C 1009.7 in /  34188.4 hPa Calm     59 % 0.0 in /  0 mm 0.0 W/m2 CLR
19:07 3.9 °F /  -15.6 °C -3.2 °F /  -19.6 °C 1009.7 in /  34188.4 hPa Calm     60 % 0.0 in /  0 mm 0.0 W/m2 CLR
19:09 3.9 °F /  -15.6 °C -3.2 °F /  -19.6 °C 1009.7 in /  34188.4 hPa Calm     60 % 0.0 in /  0 mm 0.0 W/m2 CLR
19:14 3.3 °F /  -15.9 °C -3.5 °F /  -19.7 °C 1010.0 in /  34198.6 hPa Calm     61 % 0.0 in /  0 mm 0.0 W/m2 CLR
19:19 3.3 °F /  -15.9 °C -3.5 °F /  -19.7 °C 1010.0 in /  34198.6 hPa Calm     61 % 0.0 in /  0 mm 0.0 W/m2 CLR
19:24 3.3 °F /  -15.9 °C -3.5 °F /  -19.7 °C 1010.0 in /  34198.6 hPa Calm     61 % 0.0 in /  0 mm 0.0 W/m2 CLR
19:29 2.8 °F /  -16.2 °C -3.8 °F /  -19.9 °C 1010.0 in /  34198.6 hPa Calm     62 % 0.0 in /  0 mm 0.0 W/m2 CLR
19:34 2.8 °F /  -16.2 °C -3.6 °F /  -19.8 °C 1009.7 in /  34188.4 hPa Calm     63 % 0.0 in /  0 mm 0.0 W/m2 CLR
19:39 2.8 °F /  -16.2 °C -3.4 °F /  -19.7 °C 1010.0 in /  34198.6 hPa NW 11.1 mph /  17.9 km/h 11.1 mph /  17.9 km/h 64 % 0.0 in /  0 mm 0.0 W/m2 CLR
19:44 2.8 °F /  -16.2 °C -3.8 °F /  -19.9 °C 1010.0 in /  34198.6 hPa NW 11.3 mph /  18.2 km/h 11.3 mph /  18.2 km/h 62 % 0.0 in /  0 mm 0.0 W/m2 CLR
19:49 2.8 °F /  -16.2 °C -4.0 °F /  -20 °C 1010.0 in /  34198.6 hPa WNW 9.3 mph /  15 km/h 9.3 mph /  15 km/h 61 % 0.0 in /  0 mm 0.0 W/m2 CLR
19:54 2.2 °F /  -16.6 °C -4.8 °F /  -20.4 °C 1010.0 in /  34198.6 hPa Calm     60 % 0.0 in /  0 mm 0.0 W/m2 CLR
19:59 1.7 °F /  -16.8 °C -4.8 °F /  -20.4 °C 1010.0 in /  34198.6 hPa Calm     62 % 0.0 in /  0 mm 0.0 W/m2 CLR
20:04 1.7 °F /  -16.8 °C -4.4 °F /  -20.2 °C 1010.0 in /  34198.6 hPa Calm     64 % 0.0 in /  0 mm 0.0 W/m2 CLR
20:09 1.1 °F /  -17.2 °C -4.3 °F /  -20.2 °C 1010.0 in /  34198.6 hPa West 13.0 mph /  20.9 km/h 13.0 mph /  20.9 km/h 67 % 0.0 in /  0 mm 0.0 W/m2 CLR
20:14 1.1 °F /  -17.2 °C -4.2 °F /  -20.1 °C 1010.0 in /  34198.6 hPa West 8.0 mph /  12.9 km/h 8.0 mph /  12.9 km/h 68 % 0.0 in /  0 mm 0.0 W/m2 CLR
20:19 1.1 °F /  -17.2 °C -4.2 °F /  -20.1 °C 1010.0 in /  34198.6 hPa West 9.7 mph /  15.6 km/h 9.7 mph /  15.6 km/h 68 % 0.0 in /  0 mm 0.0 W/m2 CLR
20:24 0.6 °F /  -17.4 °C -4.5 °F /  -20.3 °C 1010.0 in /  34198.6 hPa West 11.1 mph /  17.9 km/h 11.1 mph /  17.9 km/h 69 % 0.0 in /  0 mm 0.0 W/m2 CLR
20:29 0.0 °F /  -17.8 °C -5.0 °F /  -20.6 °C 1010.4 in /  34212.1 hPa West 9.7 mph /  15.6 km/h 9.7 mph /  15.6 km/h 69 % 0.0 in /  0 mm 0.0 W/m2 CLR
20:34 0.0 °F /  -17.8 °C -4.8 °F /  -20.4 °C 1010.4 in /  34212.1 hPa WNW 11.1 mph /  17.9 km/h 11.1 mph /  17.9 km/h 70 % 0.0 in /  0 mm 0.0 W/m2 CLR
20:39 0.6 °F /  -17.4 °C -4.3 °F /  -20.2 °C 1010.4 in /  34212.1 hPa West 11.1 mph /  17.9 km/h 11.1 mph /  17.9 km/h 70 % 0.0 in /  0 mm 0.0 W/m2 CLR
20:44 1.1 °F /  -17.2 °C -3.9 °F /  -19.9 °C 1010.4 in /  34212.1 hPa WNW 13.0 mph /  20.9 km/h 13.0 mph /  20.9 km/h 69 % 0.0 in /  0 mm 0.0 W/m2 CLR
20:50 1.1 °F /  -17.2 °C -4.6 °F /  -20.3 °C 1010.4 in /  34212.1 hPa WNW 9.3 mph /  15 km/h 9.3 mph /  15 km/h 66 % 0.0 in /  0 mm 0.0 W/m2 CLR
20:55 1.1 °F /  -17.2 °C -4.7 °F /  -20.4 °C 1010.4 in /  34212.1 hPa NW 9.3 mph /  15 km/h 9.3 mph /  15 km/h 65 % 0.0 in /  0 mm 0.0 W/m2 CLR
21:00 0.6 °F /  -17.4 °C -5.5 °F /  -20.8 °C 1010.4 in /  34212.1 hPa Calm     64 % 0.0 in /  0 mm 0.0 W/m2 CLR
21:05 0.0 °F /  -17.8 °C -6.0 °F /  -21.1 °C 1010.4 in /  34212.1 hPa Calm     64 % 0.0 in /  0 mm 0.0 W/m2 CLR
21:10 0.0 °F /  -17.8 °C -5.4 °F /  -20.8 °C 1010.4 in /  34212.1 hPa Calm     67 % 0.0 in /  0 mm 0.0 W/m2 CLR
21:15 0.0 °F /  -17.8 °C -5.0 °F /  -20.6 °C 1010.4 in /  34212.1 hPa Calm     69 % 0.0 in /  0 mm 0.0 W/m2 CLR
21:20 -0.6 °F /  -18.1 °C -5.3 °F /  -20.7 °C 1010.4 in /  34212.1 hPa Calm     70 % 0.0 in /  0 mm 0.0 W/m2 CLR
21:25 -0.6 °F /  -18.1 °C -5.2 °F /  -20.7 °C 1010.4 in /  34212.1 hPa Calm     71 % 0.0 in /  0 mm 0.0 W/m2 CLR
21:30 -1.1 °F /  -18.4 °C -5.5 °F /  -20.8 °C 1010.4 in /  34212.1 hPa Calm     72 % 0.0 in /  0 mm 0.0 W/m2 CLR
21:35 -1.1 °F /  -18.4 °C -5.3 °F /  -20.7 °C 1010.4 in /  34212.1 hPa Calm     73 % 0.0 in /  0 mm 0.0 W/m2 CLR
21:40 -1.1 °F /  -18.4 °C -5.3 °F /  -20.7 °C 1010.7 in /  34222.3 hPa Calm     73 % 0.0 in /  0 mm 0.0 W/m2 CLR
21:45 -1.1 °F /  -18.4 °C -5.3 °F /  -20.7 °C 1010.4 in /  34212.1 hPa Calm     73 % 0.0 in /  0 mm 0.0 W/m2 CLR
21:50 -1.1 °F /  -18.4 °C -5.2 °F /  -20.7 °C 1010.4 in /  34212.1 hPa Calm     74 % 0.0 in /  0 mm 0.0 W/m2 CLR
21:55 -1.1 °F /  -18.4 °C -5.2 °F /  -20.7 °C 1010.7 in /  34222.3 hPa Calm     74 % 0.0 in /  0 mm 0.0 W/m2 CLR
22:00 -1.1 °F /  -18.4 °C -5.2 °F /  -20.7 °C 1010.7 in /  34222.3 hPa Calm     74 % 0.0 in /  0 mm 0.0 W/m2 CLR
22:05 -1.1 °F /  -18.4 °C -5.2 °F /  -20.7 °C 1010.7 in /  34222.3 hPa Calm     74 % 0.0 in /  0 mm 0.0 W/m2 CLR
22:10 -1.7 °F /  -18.7 °C -5.5 °F /  -20.8 °C 1010.7 in /  34222.3 hPa Calm     75 % 0.0 in /  0 mm 0.0 W/m2 CLR
22:15 -1.7 °F /  -18.7 °C -5.5 °F /  -20.8 °C 1010.7 in /  34222.3 hPa Calm     75 % 0.0 in /  0 mm 0.0 W/m2 CLR
22:20 -1.7 °F /  -18.7 °C -5.5 °F /  -20.8 °C 1010.7 in /  34222.3 hPa Calm     75 % 0.0 in /  0 mm 0.0 W/m2 CLR
22:25 -2.2 °F /  -19 °C -5.9 °F /  -21.1 °C 1011.1 in /  34235.8 hPa Calm     76 % 0.0 in /  0 mm 0.0 W/m2 CLR
22:30 -1.7 °F /  -18.7 °C -5.3 °F /  -20.7 °C 1011.1 in /  34235.8 hPa Calm     76 % 0.0 in /  0 mm 0.0 W/m2 CLR
22:35 -1.1 °F /  -18.4 °C -4.8 °F /  -20.4 °C 1010.7 in /  34222.3 hPa Calm     76 % 0.0 in /  0 mm 0.0 W/m2 CLR
22:40 -1.7 °F /  -18.7 °C -5.3 °F /  -20.7 °C 1011.1 in /  34235.8 hPa Calm     76 % 0.0 in /  0 mm 0.0 W/m2 CLR
22:45 -1.7 °F /  -18.7 °C -5.2 °F /  -20.7 °C 1010.7 in /  34222.3 hPa Calm     77 % 0.0 in /  0 mm 0.0 W/m2 CLR
22:50 -2.2 °F /  -19 °C -5.7 °F /  -20.9 °C 1010.7 in /  34222.3 hPa Calm     77 % 0.0 in /  0 mm 0.0 W/m2 CLR
22:55 -2.2 °F /  -19 °C -5.7 °F /  -20.9 °C 1010.7 in /  34222.3 hPa Calm     77 % 0.0 in /  0 mm 0.0 W/m2 CLR
23:00 -2.2 °F /  -19 °C -5.6 °F /  -20.9 °C 1010.7 in /  34222.3 hPa Calm     78 % 0.0 in /  0 mm 0.0 W/m2 CLR
23:05 -2.2 °F /  -19 °C -5.6 °F /  -20.9 °C 1010.7 in /  34222.3 hPa Calm     78 % 0.0 in /  0 mm 0.0 W/m2 CLR
23:10 -2.8 °F /  -19.3 °C -6.1 °F /  -21.2 °C 1011.1 in /  34235.8 hPa Calm     78 % 0.0 in /  0 mm 0.0 W/m2 CLR
23:15 -2.8 °F /  -19.3 °C -5.9 °F /  -21.1 °C 1011.1 in /  34235.8 hPa Calm     79 % 0.0 in /  0 mm 0.0 W/m2 CLR
23:20 -2.8 °F /  -19.3 °C -5.7 °F /  -20.9 °C 1011.1 in /  34235.8 hPa Calm     80 % 0.0 in /  0 mm 0.0 W/m2 CLR
23:25 -2.8 °F /  -19.3 °C -5.7 °F /  -20.9 °C 1011.1 in /  34235.8 hPa Calm     80 % 0.0 in /  0 mm 0.0 W/m2 CLR
23:30 -2.8 °F /  -19.3 °C -5.6 °F /  -20.9 °C 1011.1 in /  34235.8 hPa Calm     81 % 0.0 in /  0 mm 0.0 W/m2 CLR
23:35 -2.8 °F /  -19.3 °C -5.6 °F /  -20.9 °C 1011.1 in /  34235.8 hPa Calm     81 % 0.0 in /  0 mm 0.0 W/m2 CLR
23:40 -2.8 °F /  -19.3 °C -5.6 °F /  -20.9 °C 1011.1 in /  34235.8 hPa Calm     81 % 0.0 in /  0 mm 0.0 W/m2 CLR
23:45 -2.8 °F /  -19.3 °C -5.6 °F /  -20.9 °C 1011.1 in /  34235.8 hPa Calm     81 % 0.0 in /  0 mm 0.0 W/m2 CLR
23:50 -2.8 °F /  -19.3 °C -5.4 °F /  -20.8 °C 1011.1 in /  34235.8 hPa Calm     82 % 0.0 in /  0 mm 0.0 W/m2 CLR
23:55 -2.8 °F /  -19.3 °C -5.4 °F /  -20.8 °C 1011.1 in /  34235.8 hPa Calm     82 % 0.0 in /  0 mm 0.0 W/m2 CLR
Lo Temps de Massalio
Compliments of Weather Underground - 1.25 mb